createdAt,value
2018-04-16T00:00:22.842Z,86
2018-04-16T00:01:22.391Z,87
2018-04-16T00:02:22.910Z,87
2018-04-16T00:03:22.643Z,87
2018-04-16T00:04:22.869Z,87
2018-04-16T00:05:22.613Z,87
2018-04-16T00:06:22.849Z,87
2018-04-16T00:07:22.865Z,87
2018-04-16T00:08:22.904Z,87
2018-04-16T00:09:22.589Z,87
2018-04-16T00:10:22.851Z,87
2018-04-16T00:11:22.476Z,87
2018-04-16T00:12:22.491Z,88
2018-04-16T00:13:22.943Z,88
2018-04-16T00:14:22.616Z,88
2018-04-16T00:15:22.616Z,88
2018-04-16T00:16:22.859Z,88
2018-04-16T00:17:22.504Z,88
2018-04-16T00:18:22.936Z,88
2018-04-16T00:19:22.924Z,88
2018-04-16T00:20:22.871Z,88
2018-04-16T00:21:22.654Z,88
2018-04-16T00:22:22.870Z,88
2018-04-16T00:23:22.928Z,88
2018-04-16T00:24:22.660Z,88
2018-04-16T00:25:22.691Z,88
2018-04-16T00:26:22.495Z,88
2018-04-16T00:27:22.861Z,88
2018-04-16T00:28:22.932Z,88
2018-04-16T00:29:22.942Z,88
2018-04-16T00:30:22.698Z,88
2018-04-16T00:31:22.661Z,88
2018-04-16T00:32:22.920Z,88
2018-04-16T00:33:22.515Z,88
2018-04-16T00:34:22.721Z,88
2018-04-16T00:35:22.951Z,88
2018-04-16T00:36:22.957Z,88
2018-04-16T00:37:22.725Z,88
2018-04-16T00:38:22.708Z,88
2018-04-16T00:39:22.516Z,88
2018-04-16T00:40:22.497Z,88
2018-04-16T00:41:22.507Z,88
2018-04-16T00:42:22.700Z,89
2018-04-16T00:43:22.911Z,89
2018-04-16T00:44:23.018Z,89
2018-04-16T00:45:22.957Z,89
2018-04-16T00:46:22.628Z,89
2018-04-16T00:47:22.908Z,89
2018-04-16T00:48:22.723Z,89
2018-04-16T00:49:22.533Z,89
2018-04-16T00:50:22.468Z,89
2018-04-16T00:51:22.739Z,89
2018-04-16T00:52:22.545Z,89
2018-04-16T00:53:22.712Z,89
2018-04-16T00:54:22.564Z,89
2018-04-16T00:55:22.996Z,89
2018-04-16T00:56:22.933Z,89
2018-04-16T00:57:22.721Z,90
2018-04-16T00:58:23.017Z,90
2018-04-16T00:59:22.976Z,90
2018-04-16T01:00:22.521Z,90
2018-04-16T01:01:23.002Z,90
2018-04-16T01:02:22.589Z,91
2018-04-16T01:03:22.630Z,91
2018-04-16T01:04:23.047Z,91
2018-04-16T01:05:22.677Z,91
2018-04-16T01:06:23.009Z,91
2018-04-16T01:07:22.727Z,91
2018-04-16T01:08:22.681Z,91
2018-04-16T01:09:22.963Z,91
2018-04-16T01:10:22.998Z,91
2018-04-16T01:11:22.585Z,91
2018-04-16T01:12:23.075Z,91
2018-04-16T01:13:22.583Z,91
2018-04-16T01:14:22.949Z,91
2018-04-16T01:15:22.639Z,91
2018-04-16T01:16:22.553Z,91
2018-04-16T01:17:22.767Z,91
2018-04-16T01:18:22.759Z,91
2018-04-16T01:19:23.047Z,91
2018-04-16T01:20:22.620Z,91
2018-04-16T01:21:23.090Z,91
2018-04-16T01:22:23.074Z,91
2018-04-16T01:23:23.102Z,91
2018-04-16T01:24:22.630Z,91
2018-04-16T01:25:23.113Z,91
2018-04-16T01:26:23.119Z,91
2018-04-16T01:27:23.065Z,91
2018-04-16T01:28:22.596Z,91
2018-04-16T01:29:22.594Z,91
2018-04-16T01:30:22.619Z,91
2018-04-16T01:31:22.606Z,91
2018-04-16T01:32:23.020Z,91
2018-04-16T01:33:23.079Z,91
2018-04-16T01:34:22.632Z,91
2018-04-16T01:35:23.124Z,91
2018-04-16T01:36:23.050Z,91
2018-04-16T01:37:23.042Z,91
2018-04-16T01:38:23.081Z,92
2018-04-16T01:39:23.093Z,92
2018-04-16T01:40:23.103Z,92
2018-04-16T01:41:22.599Z,92
2018-04-16T01:42:23.058Z,92
2018-04-16T01:43:23.549Z,92
2018-04-16T01:44:22.673Z,92
2018-04-16T01:45:22.838Z,92
2018-04-16T01:46:23.070Z,92
2018-04-16T01:47:23.445Z,92
2018-04-16T01:48:22.632Z,92
2018-04-16T01:49:22.648Z,92
2018-04-16T01:50:23.160Z,92
2018-04-16T01:51:22.830Z,92
2018-04-16T01:52:23.109Z,92
2018-04-16T01:53:22.643Z,92
2018-04-16T01:54:22.893Z,92
2018-04-16T01:55:23.077Z,92
2018-04-16T01:56:22.704Z,92
2018-04-16T01:57:23.073Z,92
2018-04-16T01:58:23.148Z,92
2018-04-16T01:59:23.096Z,92
2018-04-16T02:00:23.220Z,92
2018-04-16T02:01:22.663Z,92
2018-04-16T02:02:23.124Z,92
2018-04-16T02:03:23.148Z,92
2018-04-16T02:04:22.679Z,92
2018-04-16T02:05:23.132Z,92
2018-04-16T02:06:23.179Z,92
2018-04-16T02:07:23.100Z,92
2018-04-16T02:08:22.848Z,92
2018-04-16T02:09:22.662Z,92
2018-04-16T02:10:23.161Z,92
2018-04-16T02:11:23.163Z,92
2018-04-16T02:12:23.063Z,92
2018-04-16T02:13:22.722Z,92
2018-04-16T02:14:23.226Z,92
2018-04-16T02:15:22.639Z,92
2018-04-16T02:16:22.669Z,92
2018-04-16T02:17:22.729Z,92
2018-04-16T02:18:23.118Z,92
2018-04-16T02:19:23.197Z,92
2018-04-16T02:20:22.925Z,92
2018-04-16T02:21:22.724Z,92
2018-04-16T02:22:25.346Z,92
2018-04-16T02:23:22.711Z,92
2018-04-16T02:24:22.917Z,92
2018-04-16T02:25:22.893Z,92
2018-04-16T02:26:23.269Z,92
2018-04-16T02:27:23.155Z,92
2018-04-16T02:28:23.123Z,92
2018-04-16T02:29:23.167Z,92
2018-04-16T02:30:23.184Z,92
2018-04-16T02:31:23.190Z,91
2018-04-16T02:32:22.956Z,91
2018-04-16T02:33:22.889Z,91
2018-04-16T02:34:23.185Z,91
2018-04-16T02:35:22.729Z,91
2018-04-16T02:36:22.865Z,91
2018-04-16T02:37:23.277Z,91
2018-04-16T02:38:23.177Z,91
2018-04-16T02:39:23.167Z,91
2018-04-16T02:40:23.160Z,91
2018-04-16T02:41:23.201Z,91
2018-04-16T02:42:23.232Z,91
2018-04-16T02:43:23.148Z,91
2018-04-16T02:44:23.169Z,92
2018-04-16T02:45:23.181Z,92
2018-04-16T02:46:22.775Z,92
2018-04-16T02:47:22.710Z,92
2018-04-16T02:48:23.182Z,92
2018-04-16T02:49:23.162Z,91
2018-04-16T02:50:22.949Z,91
2018-04-16T02:51:23.190Z,91
2018-04-16T02:52:23.241Z,91
2018-04-16T02:53:23.223Z,91
2018-04-16T02:54:22.768Z,91
2018-04-16T02:55:23.260Z,91
2018-04-16T02:56:23.252Z,91
2018-04-16T02:57:22.970Z,91
2018-04-16T02:58:22.951Z,91
2018-04-16T02:59:23.245Z,91
2018-04-16T03:00:22.825Z,91
2018-04-16T03:01:23.244Z,91
2018-04-16T03:02:23.008Z,90
2018-04-16T03:03:22.950Z,90
2018-04-16T03:04:23.212Z,89
2018-04-16T03:05:23.238Z,89
2018-04-16T03:06:23.000Z,89
2018-04-16T03:07:23.217Z,89
2018-04-16T03:08:23.278Z,89
2018-04-16T03:09:23.284Z,88
2018-04-16T03:10:23.013Z,88
2018-04-16T03:11:23.196Z,88
2018-04-16T03:12:23.272Z,88
2018-04-16T03:13:22.869Z,88
2018-04-16T03:14:22.889Z,88
2018-04-16T03:15:22.955Z,87
2018-04-16T03:16:23.208Z,87
2018-04-16T03:17:23.256Z,86
2018-04-16T03:18:24.963Z,86
2018-04-16T03:19:23.433Z,86
2018-04-16T03:20:23.254Z,86
2018-04-16T03:21:23.239Z,86
2018-04-16T03:22:23.205Z,86
2018-04-16T03:23:22.845Z,86
2018-04-16T03:24:22.860Z,86
2018-04-16T03:25:22.912Z,86
2018-04-16T03:26:22.952Z,86
2018-04-16T03:27:23.179Z,86
2018-04-16T03:28:23.207Z,86
2018-04-16T03:29:23.191Z,86
2018-04-16T03:30:22.791Z,86
2018-04-16T03:31:22.981Z,86
2018-04-16T03:32:23.026Z,86
2018-04-16T03:33:23.204Z,86
2018-04-16T03:34:22.844Z,86
2018-04-16T03:35:23.239Z,86
2018-04-16T03:36:23.321Z,86
2018-04-16T03:37:23.243Z,86
2018-04-16T03:38:22.982Z,86
2018-04-16T03:39:23.013Z,86
2018-04-16T03:40:23.026Z,86
2018-04-16T03:41:23.253Z,86
2018-04-16T03:42:23.007Z,86
2018-04-16T03:43:23.291Z,86
2018-04-16T03:44:22.970Z,86
2018-04-16T03:45:23.246Z,86
2018-04-16T03:46:23.252Z,86
2018-04-16T03:47:23.239Z,86
2018-04-16T03:48:23.030Z,86
2018-04-16T03:49:23.043Z,86
2018-04-16T03:50:23.023Z,86
2018-04-16T03:51:23.310Z,86
2018-04-16T03:52:23.019Z,86
2018-04-16T03:53:22.871Z,86
2018-04-16T03:54:23.306Z,86
2018-04-16T03:55:22.883Z,86
2018-04-16T03:56:23.015Z,86
2018-04-16T03:57:22.894Z,86
2018-04-16T03:58:22.891Z,86
2018-04-16T03:59:23.331Z,86
2018-04-16T04:00:22.885Z,86
2018-04-16T04:01:23.404Z,86
2018-04-16T04:02:22.895Z,86
2018-04-16T04:03:23.086Z,86
2018-04-16T04:04:23.376Z,86
2018-04-16T04:05:23.338Z,86
2018-04-16T04:06:22.928Z,86
2018-04-16T04:07:22.970Z,86
2018-04-16T04:08:22.890Z,87
2018-04-16T04:09:22.916Z,87
2018-04-16T04:10:23.027Z,86
2018-04-16T04:11:22.927Z,86
2018-04-16T04:12:23.428Z,86
2018-04-16T04:13:23.291Z,86
2018-04-16T04:14:23.215Z,86
2018-04-16T04:15:23.408Z,86
2018-04-16T04:16:23.386Z,86
2018-04-16T04:17:23.357Z,86
2018-04-16T04:18:23.042Z,86
2018-04-16T04:19:23.068Z,86
2018-04-16T04:20:23.430Z,86
2018-04-16T04:21:23.333Z,86
2018-04-16T04:22:23.413Z,86
2018-04-16T04:23:23.128Z,86
2018-04-16T04:24:23.095Z,86
2018-04-16T04:25:23.383Z,86
2018-04-16T04:26:23.387Z,85
2018-04-16T04:27:23.116Z,85
2018-04-16T04:28:23.392Z,85
2018-04-16T04:29:23.396Z,85
2018-04-16T04:30:23.415Z,85
2018-04-16T04:31:22.951Z,86
2018-04-16T04:32:22.962Z,86
2018-04-16T04:33:23.401Z,86
2018-04-16T04:34:23.392Z,86
2018-04-16T04:35:23.122Z,86
2018-04-16T04:36:23.435Z,86
2018-04-16T04:37:23.399Z,86
2018-04-16T04:38:23.454Z,86
2018-04-16T04:39:22.987Z,86
2018-04-16T04:40:22.933Z,86
2018-04-16T04:41:22.963Z,87
2018-04-16T04:42:23.337Z,87
2018-04-16T04:43:24.029Z,87
2018-04-16T04:44:23.139Z,87
2018-04-16T04:45:23.470Z,87
2018-04-16T04:46:23.105Z,87
2018-04-16T04:47:23.027Z,87
2018-04-16T04:48:23.458Z,87
2018-04-16T04:49:23.397Z,88
2018-04-16T04:50:23.422Z,88
2018-04-16T04:51:23.428Z,88
2018-04-16T04:52:22.995Z,88
2018-04-16T04:53:23.400Z,88
2018-04-16T04:54:23.429Z,88
2018-04-16T04:55:23.405Z,88
2018-04-16T04:56:23.375Z,88
2018-04-16T04:57:23.147Z,88
2018-04-16T04:58:23.404Z,88
2018-04-16T04:59:23.387Z,88
2018-04-16T05:00:22.951Z,88
2018-04-16T05:01:23.435Z,88
2018-04-16T05:02:23.359Z,88
2018-04-16T05:03:23.146Z,88
2018-04-16T05:04:23.395Z,89
2018-04-16T05:05:23.081Z,89
2018-04-16T05:06:23.388Z,89
2018-04-16T05:07:23.040Z,89
2018-04-16T05:08:23.147Z,89
2018-04-16T05:09:23.170Z,89
2018-04-16T05:10:23.433Z,89
2018-04-16T05:11:23.184Z,89
2018-04-16T05:12:23.031Z,89
2018-04-16T05:13:23.193Z,89
2018-04-16T05:14:23.177Z,89
2018-04-16T05:15:23.477Z,89
2018-04-16T05:16:23.426Z,89
2018-04-16T05:17:23.420Z,89
2018-04-16T05:18:23.504Z,89
2018-04-16T05:19:23.445Z,89
2018-04-16T05:20:23.448Z,89
2018-04-16T05:21:23.208Z,89
2018-04-16T05:22:23.463Z,89
2018-04-16T05:23:23.447Z,89
2018-04-16T05:24:23.439Z,89
2018-04-16T05:25:23.460Z,89
2018-04-16T05:26:23.264Z,89
2018-04-16T05:27:23.442Z,90
2018-04-16T05:28:23.466Z,90
2018-04-16T05:29:23.493Z,90
2018-04-16T05:30:23.460Z,90
2018-04-16T05:31:23.505Z,90
2018-04-16T05:32:23.092Z,90
2018-04-16T05:33:23.536Z,90
2018-04-16T05:34:23.184Z,89
2018-04-16T05:35:23.457Z,89
2018-04-16T05:36:23.463Z,89
2018-04-16T05:37:23.114Z,89
2018-04-16T05:38:23.497Z,89
2018-04-16T05:39:23.402Z,89
2018-04-16T05:40:23.219Z,89
2018-04-16T05:41:23.032Z,89
2018-04-16T05:42:23.550Z,89
2018-04-16T05:43:23.587Z,89
2018-04-16T05:44:23.592Z,89
2018-04-16T05:45:23.119Z,89
2018-04-16T05:46:23.618Z,89
2018-04-16T05:47:23.570Z,89
2018-04-16T05:48:23.553Z,89
2018-04-16T05:49:23.576Z,89
2018-04-16T05:50:23.487Z,89
2018-04-16T05:51:23.508Z,89
2018-04-16T05:52:23.109Z,90
2018-04-16T05:53:23.337Z,90
2018-04-16T05:54:23.551Z,90
2018-04-16T05:55:23.575Z,90
2018-04-16T05:56:23.598Z,90
2018-04-16T05:57:23.103Z,90
2018-04-16T05:58:23.121Z,90
2018-04-16T05:59:23.141Z,90
2018-04-16T06:00:23.626Z,90
2018-04-16T06:01:23.534Z,90
2018-04-16T06:02:23.530Z,90
2018-04-16T06:03:23.520Z,90
2018-04-16T06:04:23.591Z,90
2018-04-16T06:05:23.237Z,90
2018-04-16T06:06:23.525Z,90
2018-04-16T06:07:23.568Z,90
2018-04-16T06:08:23.536Z,90
2018-04-16T06:09:23.575Z,90
2018-04-16T06:10:23.266Z,90
2018-04-16T06:11:23.279Z,90
2018-04-16T06:12:23.557Z,90
2018-04-16T06:13:23.556Z,90
2018-04-16T06:14:23.083Z,90
2018-04-16T06:15:23.546Z,90
2018-04-16T06:16:23.277Z,90
2018-04-16T06:17:23.227Z,90
2018-04-16T06:18:23.308Z,90
2018-04-16T06:19:23.637Z,90
2018-04-16T06:20:23.536Z,90
2018-04-16T06:21:23.584Z,90
2018-04-16T06:22:23.535Z,90
2018-04-16T06:23:23.598Z,91
2018-04-16T06:24:23.288Z,91
2018-04-16T06:25:24.967Z,91
2018-04-16T06:26:24.683Z,91
2018-04-16T06:27:23.603Z,91
2018-04-16T06:28:23.095Z,91
2018-04-16T06:29:23.108Z,91
2018-04-16T06:30:23.517Z,91
2018-04-16T06:31:23.104Z,91
2018-04-16T06:32:23.551Z,91
2018-04-16T06:33:23.356Z,90
2018-04-16T06:34:23.557Z,90
2018-04-16T06:35:23.138Z,90
2018-04-16T06:36:23.330Z,90
2018-04-16T06:37:24.088Z,90
2018-04-16T06:38:23.669Z,90
2018-04-16T06:39:23.742Z,90
2018-04-16T06:41:33.597Z,90
2018-04-16T06:42:33.752Z,90
2018-04-16T06:43:33.949Z,90
2018-04-16T06:44:36.601Z,90
2018-04-16T06:45:33.563Z,91
2018-04-16T06:46:33.745Z,91
2018-04-16T06:47:33.997Z,91
2018-04-16T06:48:34.006Z,90
2018-04-16T06:49:33.727Z,90
2018-04-16T06:50:33.770Z,90
2018-04-16T06:51:33.988Z,90
2018-04-16T06:52:33.945Z,90
2018-04-16T06:53:33.973Z,90
2018-04-16T06:54:33.911Z,90
2018-04-16T06:55:33.481Z,90
2018-04-16T06:56:33.683Z,90
2018-04-16T06:57:33.711Z,90
2018-04-16T06:58:33.578Z,90
2018-04-16T06:59:33.932Z,90
2018-04-16T07:00:34.118Z,90
2018-04-16T07:01:34.559Z,90
2018-04-16T07:02:34.100Z,90
2018-04-16T07:03:33.963Z,90
2018-04-16T07:04:34.058Z,90
2018-04-16T07:05:34.136Z,90
2018-04-16T07:06:34.434Z,90
2018-04-16T07:07:33.560Z,90
2018-04-16T07:08:34.199Z,90
2018-04-16T07:09:34.378Z,90
2018-04-16T07:10:33.832Z,90
2018-04-16T07:11:33.550Z,90
2018-04-16T07:12:34.021Z,90
2018-04-16T07:13:34.026Z,90
2018-04-16T07:14:36.169Z,90
2018-04-16T07:15:34.713Z,90
2018-04-16T07:16:34.378Z,90
2018-04-16T07:17:33.836Z,90
2018-04-16T07:18:34.224Z,90
2018-04-16T07:19:34.147Z,90
2018-04-16T07:20:34.077Z,90
2018-04-16T07:21:33.780Z,90
2018-04-16T07:22:33.928Z,90
2018-04-16T07:23:34.163Z,90
2018-04-16T07:24:34.039Z,90
2018-04-16T07:25:33.696Z,90
2018-04-16T07:26:33.923Z,90
2018-04-16T07:27:34.175Z,90
2018-04-16T07:28:33.575Z,90
2018-04-16T07:29:33.777Z,89
2018-04-16T07:30:33.993Z,89
2018-04-16T07:31:33.756Z,89
2018-04-16T07:32:33.594Z,89
2018-04-16T07:33:33.823Z,89
2018-04-16T07:34:34.016Z,89
2018-04-16T07:35:34.041Z,89
2018-04-16T07:36:33.986Z,89
2018-04-16T07:37:33.975Z,89
2018-04-16T07:38:34.019Z,89
2018-04-16T07:39:33.822Z,89
2018-04-16T07:40:34.047Z,89
2018-04-16T07:41:34.063Z,89
2018-04-16T07:42:33.997Z,89
2018-04-16T07:43:34.077Z,89
2018-04-16T07:44:33.993Z,89
2018-04-16T07:45:33.805Z,89
2018-04-16T07:46:34.044Z,89
2018-04-16T07:47:34.068Z,89
2018-04-16T07:48:33.579Z,89
2018-04-16T07:49:34.019Z,88
2018-04-16T07:50:33.629Z,88
2018-04-16T07:51:33.772Z,88
2018-04-16T07:52:34.043Z,88
2018-04-16T07:53:34.055Z,88
2018-04-16T07:54:33.821Z,88
2018-04-16T07:55:34.187Z,88
2018-04-16T07:56:34.014Z,88
2018-04-16T07:57:33.765Z,88
2018-04-16T07:58:33.799Z,88
2018-04-16T07:59:34.091Z,88
2018-04-16T08:00:34.097Z,88
2018-04-16T08:01:34.072Z,88
2018-04-16T08:02:34.022Z,88
2018-04-16T08:03:34.089Z,88
2018-04-16T08:04:34.143Z,87
2018-04-16T08:05:34.082Z,87
2018-04-16T08:06:33.614Z,87
2018-04-16T08:07:33.789Z,87
2018-04-16T08:08:33.606Z,87
2018-04-16T08:09:34.084Z,87
2018-04-16T08:10:33.643Z,87
2018-04-16T08:11:33.636Z,87
2018-04-16T08:12:33.724Z,87
2018-04-16T08:13:34.120Z,87
2018-04-16T08:14:34.128Z,87
2018-04-16T08:15:33.619Z,87
2018-04-16T08:16:34.111Z,87
2018-04-16T08:17:34.178Z,87
2018-04-16T08:18:34.079Z,87
2018-04-16T08:19:34.172Z,87
2018-04-16T08:20:34.101Z,87
2018-04-16T08:21:33.835Z,87
2018-04-16T08:22:44.439Z,87
2018-04-16T08:23:33.667Z,87
2018-04-16T08:24:33.647Z,87
2018-04-16T08:25:34.118Z,87
2018-04-16T08:26:33.820Z,87
2018-04-16T08:27:34.106Z,87
2018-04-16T08:28:34.154Z,87
2018-04-16T08:29:34.163Z,87
2018-04-16T08:30:33.651Z,86
2018-04-16T08:31:33.869Z,86
2018-04-16T08:32:33.932Z,86
2018-04-16T08:33:33.875Z,86
2018-04-16T08:34:33.681Z,86
2018-04-16T08:35:33.895Z,85
2018-04-16T08:36:34.093Z,85
2018-04-16T08:37:34.119Z,85
2018-04-16T08:38:34.123Z,85
2018-04-16T08:39:34.085Z,85
2018-04-16T08:40:33.670Z,84
2018-04-16T08:41:34.085Z,84
2018-04-16T08:42:33.660Z,84
2018-04-16T08:43:33.818Z,84
2018-04-16T08:44:33.859Z,84
2018-04-16T08:45:33.842Z,84
2018-04-16T08:46:33.744Z,84
2018-04-16T08:47:34.149Z,83
2018-04-16T08:48:34.165Z,83
2018-04-16T08:49:34.163Z,83
2018-04-16T08:50:34.182Z,83
2018-04-16T08:51:33.672Z,83
2018-04-16T08:52:34.185Z,82
2018-04-16T08:53:33.886Z,82
2018-04-16T08:54:34.204Z,82
2018-04-16T08:55:33.933Z,82
2018-04-16T08:56:33.868Z,82
2018-04-16T08:57:33.707Z,81
2018-04-16T08:58:33.685Z,81
2018-04-16T08:59:33.906Z,81
2018-04-16T09:00:34.206Z,81
2018-04-16T09:01:34.158Z,81
2018-04-16T09:02:33.908Z,81
2018-04-16T09:03:34.148Z,81
2018-04-16T09:04:34.166Z,81
2018-04-16T09:05:34.144Z,80
2018-04-16T09:06:34.180Z,80
2018-04-16T09:07:34.205Z,80
2018-04-16T09:08:33.729Z,80
2018-04-16T09:09:33.847Z,80
2018-04-16T09:10:34.161Z,80
2018-04-16T09:11:34.230Z,80
2018-04-16T09:12:33.733Z,80
2018-04-16T09:13:33.932Z,80
2018-04-16T09:14:33.927Z,80
2018-04-16T09:15:33.734Z,79
2018-04-16T09:16:34.165Z,79
2018-04-16T09:17:34.174Z,79
2018-04-16T09:18:33.921Z,78
2018-04-16T09:19:33.730Z,78
2018-04-16T09:20:34.173Z,79
2018-04-16T09:21:34.201Z,79
2018-04-16T09:22:34.221Z,79
2018-04-16T09:23:34.165Z,80
2018-04-16T09:24:33.959Z,80
2018-04-16T09:25:34.247Z,79
2018-04-16T09:26:33.922Z,79
2018-04-16T09:27:34.214Z,79
2018-04-16T09:28:34.155Z,79
2018-04-16T09:29:34.220Z,79
2018-04-16T09:30:34.248Z,79
2018-04-16T09:31:33.777Z,79
2018-04-16T09:32:34.212Z,79
2018-04-16T09:33:34.212Z,78
2018-04-16T09:34:34.196Z,78
2018-04-16T09:35:33.963Z,78
2018-04-16T09:36:33.954Z,79
2018-04-16T09:37:33.929Z,79
2018-04-16T09:38:33.968Z,79
2018-04-16T09:39:33.999Z,79
2018-04-16T09:40:33.825Z,79
2018-04-16T09:41:34.223Z,78
2018-04-16T09:42:33.754Z,78
2018-04-16T09:43:34.218Z,79
2018-04-16T09:44:34.265Z,79
2018-04-16T09:45:33.988Z,79
2018-04-16T09:46:34.362Z,78
2018-04-16T09:47:34.319Z,78
2018-04-16T09:48:33.970Z,74
2018-04-16T09:49:33.847Z,74
2018-04-16T09:50:33.839Z,74
2018-04-16T09:51:33.968Z,77
2018-04-16T09:52:33.991Z,77
2018-04-16T09:53:33.964Z,77
2018-04-16T09:54:33.787Z,77
2018-04-16T09:55:34.270Z,77
2018-04-16T09:56:34.232Z,74
2018-04-16T09:57:34.210Z,74
2018-04-16T09:58:34.064Z,72
2018-04-16T09:59:34.306Z,72
2018-04-16T10:00:33.995Z,72
2018-04-16T10:01:34.249Z,74
2018-04-16T10:02:34.227Z,74
2018-04-16T10:03:34.300Z,74
2018-04-16T10:04:34.323Z,73
2018-04-16T10:05:33.833Z,73
2018-04-16T10:06:34.247Z,73
2018-04-16T10:07:33.847Z,73
2018-04-16T10:08:33.814Z,73
2018-04-16T10:09:34.000Z,72
2018-04-16T10:10:33.827Z,72
2018-04-16T10:11:34.297Z,70
2018-04-16T10:12:34.318Z,70
2018-04-16T10:13:34.318Z,70
2018-04-16T10:14:35.936Z,68
2018-04-16T10:15:34.066Z,68
2018-04-16T10:16:33.882Z,68
2018-04-16T10:17:34.331Z,68
2018-04-16T10:18:34.284Z,68
2018-04-16T10:19:34.048Z,67
2018-04-16T10:20:34.367Z,67
2018-04-16T10:21:34.053Z,67
2018-04-16T10:22:34.315Z,67
2018-04-16T10:23:34.430Z,67
2018-04-16T10:24:34.308Z,68
2018-04-16T10:25:34.354Z,68
2018-04-16T10:26:34.366Z,68
2018-04-16T10:27:34.338Z,68
2018-04-16T10:28:34.072Z,68
2018-04-16T10:29:33.917Z,68
2018-04-16T10:30:34.310Z,68
2018-04-16T10:31:34.367Z,68
2018-04-16T10:32:34.365Z,67
2018-04-16T10:33:33.922Z,67
2018-04-16T10:34:34.043Z,67
2018-04-16T10:35:34.324Z,67
2018-04-16T10:36:34.383Z,67
2018-04-16T10:37:34.070Z,67
2018-04-16T10:38:33.915Z,67
2018-04-16T10:39:34.306Z,67
2018-04-16T10:40:34.326Z,67
2018-04-16T10:41:33.926Z,67
2018-04-16T10:42:33.886Z,66
2018-04-16T10:43:34.343Z,66
2018-04-16T10:44:34.149Z,66
2018-04-16T10:45:34.098Z,66
2018-04-16T10:46:34.328Z,66
2018-04-16T10:47:34.343Z,67
2018-04-16T10:48:34.301Z,67
2018-04-16T10:49:34.363Z,66
2018-04-16T10:50:34.346Z,66
2018-04-16T10:51:33.924Z,66
2018-04-16T10:52:33.898Z,66
2018-04-16T10:53:34.112Z,66
2018-04-16T10:54:34.352Z,67
2018-04-16T10:55:34.152Z,67
2018-04-16T10:56:34.363Z,67
2018-04-16T10:57:34.345Z,66
2018-04-16T10:58:34.347Z,66
2018-04-16T10:59:34.369Z,66
2018-04-16T11:00:34.472Z,66
2018-04-16T11:01:33.981Z,66
2018-04-16T11:02:34.118Z,66
2018-04-16T11:03:34.435Z,66
2018-04-16T11:04:34.164Z,66
2018-04-16T11:05:33.958Z,66
2018-04-16T11:06:34.186Z,66
2018-04-16T11:07:34.412Z,65
2018-04-16T11:08:34.396Z,65
2018-04-16T11:09:34.411Z,65
2018-04-16T11:10:34.128Z,67
2018-04-16T11:11:33.958Z,67
2018-04-16T11:12:34.174Z,65
2018-04-16T11:13:34.443Z,65
2018-04-16T11:14:33.971Z,65
2018-04-16T11:15:33.979Z,65
2018-04-16T11:16:34.139Z,65
2018-04-16T11:17:34.398Z,64
2018-04-16T11:18:34.368Z,64
2018-04-16T11:19:33.957Z,64
2018-04-16T11:20:33.967Z,64
2018-04-16T11:21:33.988Z,64
2018-04-16T11:22:34.478Z,62
2018-04-16T11:23:34.456Z,62
2018-04-16T11:24:34.397Z,62
2018-04-16T11:25:34.171Z,62
2018-04-16T11:26:34.491Z,62
2018-04-16T11:27:34.446Z,62
2018-04-16T11:28:34.436Z,62
2018-04-16T11:29:34.153Z,62
2018-04-16T11:30:34.494Z,62
2018-04-16T11:31:34.468Z,62
2018-04-16T11:32:34.456Z,62
2018-04-16T11:33:34.182Z,62
2018-04-16T11:34:34.442Z,62
2018-04-16T11:35:34.444Z,61
2018-04-16T11:36:34.002Z,61
2018-04-16T11:37:34.567Z,61
2018-04-16T11:38:34.024Z,62
2018-04-16T11:39:34.000Z,62
2018-04-16T11:40:34.438Z,59
2018-04-16T11:41:34.018Z,59
2018-04-16T11:42:34.468Z,59
2018-04-16T11:43:34.206Z,59
2018-04-16T11:44:34.429Z,59
2018-04-16T11:45:34.545Z,59
2018-04-16T11:46:34.197Z,59
2018-04-16T11:47:34.444Z,59
2018-04-16T11:48:34.021Z,58
2018-04-16T11:49:34.058Z,58
2018-04-16T11:50:34.220Z,60
2018-04-16T11:51:34.486Z,60
2018-04-16T11:52:34.232Z,60
2018-04-16T11:53:34.245Z,59
2018-04-16T11:54:34.544Z,59
2018-04-16T11:55:34.485Z,59
2018-04-16T11:56:34.212Z,59
2018-04-16T11:57:34.301Z,59
2018-04-16T11:58:34.573Z,58
2018-04-16T11:59:34.455Z,58
2018-04-16T12:00:34.080Z,58
2018-04-16T12:01:34.104Z,58
2018-04-16T12:02:34.479Z,58
2018-04-16T12:03:34.069Z,58
2018-04-16T12:04:34.292Z,58
2018-04-16T12:05:34.502Z,58
2018-04-16T12:06:34.511Z,59
2018-04-16T12:07:34.508Z,59
2018-04-16T12:08:34.283Z,60
2018-04-16T12:09:34.131Z,60
2018-04-16T12:10:34.507Z,60
2018-04-16T12:11:34.290Z,59
2018-04-16T12:12:34.266Z,59
2018-04-16T12:13:34.525Z,59
2018-04-16T12:14:34.128Z,59
2018-04-16T12:15:34.525Z,59
2018-04-16T12:16:34.593Z,58
2018-04-16T12:17:34.072Z,58
2018-04-16T12:18:34.561Z,57
2018-04-16T12:19:34.108Z,57
2018-04-16T12:20:34.143Z,57
2018-04-16T12:21:34.090Z,57
2018-04-16T12:22:34.124Z,57
2018-04-16T12:23:34.137Z,58
2018-04-16T12:24:34.537Z,58
2018-04-16T12:25:34.103Z,58
2018-04-16T12:26:34.073Z,56
2018-04-16T12:27:34.261Z,56
2018-04-16T12:28:34.296Z,55
2018-04-16T12:29:34.137Z,55
2018-04-16T12:30:34.284Z,55
2018-04-16T12:31:34.201Z,56
2018-04-16T12:32:34.337Z,56
2018-04-16T12:33:34.644Z,56
2018-04-16T12:34:34.564Z,56
2018-04-16T12:35:34.596Z,56
2018-04-16T12:36:34.614Z,56
2018-04-16T12:37:34.629Z,56
2018-04-16T12:38:34.595Z,56
2018-04-16T12:39:34.119Z,57
2018-04-16T12:40:34.585Z,57
2018-04-16T12:41:34.519Z,56
2018-04-16T12:42:34.126Z,56
2018-04-16T12:43:34.571Z,56
2018-04-16T12:44:34.589Z,57
2018-04-16T12:45:34.627Z,57
2018-04-16T12:46:34.148Z,56
2018-04-16T12:47:34.624Z,56
2018-04-16T12:48:34.630Z,56
2018-04-16T12:49:34.195Z,57
2018-04-16T12:50:34.607Z,57
2018-04-16T12:51:34.222Z,56
2018-04-16T12:52:34.180Z,56
2018-04-16T12:53:34.600Z,56
2018-04-16T12:54:34.634Z,57
2018-04-16T12:55:34.611Z,57
2018-04-16T12:56:34.586Z,57
2018-04-16T12:57:34.368Z,57
2018-04-16T12:58:34.635Z,57
2018-04-16T12:59:34.667Z,57
2018-04-16T13:00:34.601Z,57
2018-04-16T13:01:34.388Z,57
2018-04-16T13:02:34.389Z,57
2018-04-16T13:03:34.167Z,57
2018-04-16T13:04:34.172Z,57
2018-04-16T13:05:34.415Z,57
2018-04-16T13:06:34.194Z,57
2018-04-16T13:07:34.374Z,57
2018-04-16T13:08:34.386Z,57
2018-04-16T13:09:34.350Z,56
2018-04-16T13:10:34.189Z,56
2018-04-16T13:11:34.637Z,56
2018-04-16T13:12:34.461Z,57
2018-04-16T13:13:34.668Z,57
2018-04-16T13:14:34.700Z,57
2018-04-16T13:15:34.220Z,57
2018-04-16T13:16:34.191Z,57
2018-04-16T13:17:34.672Z,57
2018-04-16T13:18:34.624Z,57
2018-04-16T13:19:34.184Z,61
2018-04-16T13:20:34.632Z,61
2018-04-16T13:21:34.410Z,61
2018-04-16T13:22:34.239Z,61
2018-04-16T13:23:34.410Z,61
2018-04-16T13:24:34.707Z,59
2018-04-16T13:25:34.640Z,59
2018-04-16T13:26:34.708Z,59
2018-04-16T13:27:34.423Z,59
2018-04-16T13:28:34.482Z,59
2018-04-16T13:29:34.706Z,59
2018-04-16T13:30:34.208Z,59
2018-04-16T13:31:34.685Z,59
2018-04-16T13:32:34.421Z,59
2018-04-16T13:33:34.268Z,59
2018-04-16T13:34:34.713Z,59
2018-04-16T13:35:34.693Z,59
2018-04-16T13:36:34.734Z,59
2018-04-16T13:37:34.657Z,57
2018-04-16T13:38:34.733Z,57
2018-04-16T13:39:34.231Z,57
2018-04-16T13:40:34.762Z,58
2018-04-16T13:41:34.423Z,58
2018-04-16T13:42:34.663Z,58
2018-04-16T13:43:34.260Z,58
2018-04-16T13:44:34.667Z,58
2018-04-16T13:45:34.445Z,58
2018-04-16T13:46:34.436Z,58
2018-04-16T13:47:34.469Z,58
2018-04-16T13:48:34.740Z,58
2018-04-16T13:49:34.766Z,58
2018-04-16T13:50:34.462Z,57
2018-04-16T13:51:34.264Z,57
2018-04-16T13:52:34.409Z,57
2018-04-16T13:53:34.712Z,57
2018-04-16T13:54:34.313Z,57
2018-04-16T13:55:34.695Z,57
2018-04-16T13:56:34.702Z,57
2018-04-16T13:57:34.726Z,57
2018-04-16T13:58:34.451Z,57
2018-04-16T13:59:34.290Z,57
2018-04-16T14:00:34.758Z,57
2018-04-16T14:01:35.950Z,57
2018-04-16T14:02:34.723Z,57
2018-04-16T14:03:34.468Z,57
2018-04-16T14:04:34.742Z,57
2018-04-16T14:05:34.854Z,57
2018-04-16T14:06:34.781Z,57
2018-04-16T14:07:34.758Z,57
2018-04-16T14:08:34.316Z,57
2018-04-16T14:09:34.816Z,57
2018-04-16T14:10:34.498Z,57
2018-04-16T14:11:34.836Z,57
2018-04-16T14:12:34.345Z,57
2018-04-16T14:13:35.297Z,56
2018-04-16T14:14:35.208Z,56
2018-04-16T14:15:34.581Z,56
2018-04-16T14:16:35.442Z,56